createdAt,value
2023-03-20T00:02:27.805Z,98205.06
2023-03-20T00:04:56.494Z,98209.34
2023-03-20T00:07:24.756Z,98210.22
2023-03-20T00:09:53.541Z,98208.63
2023-03-20T00:12:27.440Z,98212.94
2023-03-20T00:14:56.233Z,98210.53
2023-03-20T00:17:24.429Z,98220.75
2023-03-20T00:19:52.681Z,98217.34
2023-03-20T00:22:20.885Z,98220.69
2023-03-20T00:24:49.690Z,98214.69
2023-03-20T00:27:19.574Z,98209.53
2023-03-20T00:29:49.363Z,98218.81
2023-03-20T00:32:18.563Z,98212.88
2023-03-20T00:34:47.004Z,98211.94
2023-03-20T00:37:15.741Z,98217.91
2023-03-20T00:39:44.576Z,98215.38
2023-03-20T00:42:21.413Z,98226.47
2023-03-20T00:44:54.169Z,98222.19
2023-03-20T00:47:28.140Z,98215.44
2023-03-20T00:49:58.156Z,98211.09
2023-03-20T00:52:26.517Z,98214.59
2023-03-20T00:54:55.169Z,98218.09
2023-03-20T00:57:27.316Z,98222.34
2023-03-20T01:00:01.511Z,98210.38
2023-03-20T01:02:31.414Z,98191.59
2023-03-20T01:05:00.912Z,98209.53
2023-03-20T01:07:29.654Z,98218.00
2023-03-20T01:09:57.955Z,98220.59
2023-03-20T01:12:26.752Z,98212.91
2023-03-20T01:14:59.529Z,98205.13
2023-03-20T01:17:30.164Z,98205.34
2023-03-20T01:19:58.679Z,98206.25
2023-03-20T01:22:27.262Z,98197.84
2023-03-20T01:24:55.900Z,98194.31
2023-03-20T01:27:24.423Z,98187.56
2023-03-20T01:29:52.614Z,98180.78
2023-03-20T01:32:22.234Z,98202.16
2023-03-20T01:34:51.494Z,98206.50
2023-03-20T01:37:25.521Z,98208.31
2023-03-20T01:39:54.171Z,98206.56
2023-03-20T01:42:22.750Z,98217.69
2023-03-20T01:44:51.416Z,98219.41
2023-03-20T01:47:23.679Z,98226.22
2023-03-20T01:50:22.654Z,98223.63
2023-03-20T01:52:53.922Z,98220.16
2023-03-20T01:55:23.129Z,98218.31
2023-03-20T01:57:56.587Z,98227.72
2023-03-20T02:00:25.118Z,98231.94
2023-03-20T02:02:56.224Z,98219.19
2023-03-20T02:05:25.256Z,98226.75
2023-03-20T02:08:04.077Z,98229.28
2023-03-20T02:10:32.873Z,98236.97
2023-03-20T02:13:04.786Z,98226.81
2023-03-20T02:15:33.948Z,98235.25
2023-03-20T02:18:04.342Z,98237.75
2023-03-20T02:20:47.456Z,98238.59
2023-03-20T02:23:48.762Z,98234.31
2023-03-20T02:26:53.604Z,98233.53
2023-03-20T02:29:54.979Z,98233.53
2023-03-20T02:33:08.844Z,98226.00
2023-03-20T02:36:22.500Z,98239.72
2023-03-20T02:39:21.314Z,98232.91
2023-03-20T02:41:55.914Z,98243.13
2023-03-20T02:44:33.197Z,98240.53
2023-03-20T02:47:05.544Z,98235.41
2023-03-20T02:49:51.832Z,98243.84
2023-03-20T02:52:27.476Z,98251.50
2023-03-20T02:55:07.585Z,98254.03
2023-03-20T02:57:44.975Z,98258.31
2023-03-20T03:00:17.245Z,98254.81
2023-03-20T03:02:52.426Z,98260.00
2023-03-20T03:05:24.129Z,98252.31
2023-03-20T03:07:57.425Z,98246.34
2023-03-20T03:10:30.509Z,98243.81
2023-03-20T03:13:02.400Z,98247.22
2023-03-20T03:15:35.156Z,98248.94
2023-03-20T03:18:06.604Z,98254.91
2023-03-20T03:20:37.751Z,98253.19
2023-03-20T03:23:07.464Z,98258.19
2023-03-20T03:25:41.888Z,98261.53
2023-03-20T03:28:22.655Z,98257.34
2023-03-20T03:30:53.910Z,98247.22
2023-03-20T03:33:25.387Z,98259.19
2023-03-20T03:36:03.795Z,98262.59
2023-03-20T03:38:39.202Z,98262.66
2023-03-20T03:41:21.134Z,98266.09
2023-03-20T03:43:59.212Z,98257.50
2023-03-20T03:46:36.584Z,98263.44
2023-03-20T03:49:07.259Z,98254.06
2023-03-20T03:51:40.938Z,98259.19
2023-03-20T03:54:12.650Z,98261.72
2023-03-20T03:56:46.297Z,98250.69
2023-03-20T03:59:21.139Z,98265.16
2023-03-20T04:01:53.677Z,98260.88
2023-03-20T04:04:23.648Z,98254.16
2023-03-20T04:06:52.320Z,98264.41
2023-03-20T04:09:21.235Z,98266.09
2023-03-20T04:11:53.291Z,98260.94
2023-03-20T04:14:22.089Z,98261.78
2023-03-20T04:16:50.423Z,98258.31
2023-03-20T04:19:18.736Z,98266.00
2023-03-20T04:21:47.258Z,98267.69
2023-03-20T04:24:15.615Z,98266.84
2023-03-20T04:26:44.162Z,98260.94
2023-03-20T04:29:14.419Z,98270.25
2023-03-20T04:31:42.669Z,98277.06
2023-03-20T04:34:11.658Z,98279.66
2023-03-20T04:36:40.047Z,98274.59
2023-03-20T04:39:08.328Z,98266.16
2023-03-20T04:41:36.555Z,98268.72
2023-03-20T04:44:05.103Z,98271.34
2023-03-20T04:46:35.063Z,98279.06
2023-03-20T04:49:04.353Z,98277.38
2023-03-20T04:51:33.110Z,98273.22
2023-03-20T04:54:01.908Z,98280.00
2023-03-20T04:56:30.602Z,98283.44
2023-03-20T04:58:58.882Z,98278.38
2023-03-20T05:01:27.476Z,98283.47
2023-03-20T05:04:01.092Z,98283.44
2023-03-20T05:06:29.955Z,98283.41
2023-03-20T05:08:59.272Z,98280.06
2023-03-20T05:11:27.911Z,98298.78
2023-03-20T05:13:56.906Z,98305.66
2023-03-20T05:16:25.935Z,98307.34
2023-03-20T05:18:55.198Z,98307.34
2023-03-20T05:21:25.212Z,98309.91
2023-03-20T05:23:54.161Z,98314.13
2023-03-20T05:26:23.237Z,98311.59
2023-03-20T05:28:52.324Z,98314.97
2023-03-20T05:31:21.127Z,98315.78
2023-03-20T05:33:49.498Z,98319.19
2023-03-20T05:36:18.297Z,98326.84
2023-03-20T05:38:48.696Z,98320.88
2023-03-20T05:41:17.807Z,98323.41
2023-03-20T05:43:46.507Z,98326.75
2023-03-20T05:46:14.956Z,98326.84
2023-03-20T05:48:43.434Z,98326.00
2023-03-20T05:51:12.118Z,98325.09
2023-03-20T05:53:40.734Z,98328.47
2023-03-20T05:56:12.094Z,98331.84
2023-03-20T05:58:41.107Z,98329.28
2023-03-20T06:01:10.218Z,98327.63
2023-03-20T06:03:38.669Z,98336.22
2023-03-20T06:06:07.957Z,98336.19
2023-03-20T06:08:36.764Z,98342.16
2023-03-20T06:11:05.285Z,98340.38
2023-03-20T06:13:35.688Z,98344.56
2023-03-20T06:16:05.475Z,98346.28
2023-03-20T06:18:34.016Z,98356.44
2023-03-20T06:21:03.131Z,98359.84
2023-03-20T06:23:31.779Z,98351.25
2023-03-20T06:26:00.341Z,98348.72
2023-03-20T06:28:28.786Z,98361.38
2023-03-20T06:31:01.357Z,98362.22
2023-03-20T06:33:30.012Z,98352.78
2023-03-20T06:35:59.202Z,98355.22
2023-03-20T06:38:27.922Z,98360.25
2023-03-20T06:40:56.394Z,98364.53
2023-03-20T06:43:25.262Z,98365.31
2023-03-20T06:45:54.112Z,98358.47
2023-03-20T06:48:23.803Z,98361.78
2023-03-20T06:50:53.150Z,98356.69
2023-03-20T06:53:23.009Z,98369.44
2023-03-20T06:55:52.232Z,98367.69
2023-03-20T06:58:21.026Z,98365.88
2023-03-20T07:00:49.465Z,98366.69
2023-03-20T07:03:18.499Z,98367.66
2023-03-20T07:05:49.040Z,98365.84
2023-03-20T07:08:17.803Z,98364.09
2023-03-20T07:10:46.699Z,98372.63
2023-03-20T07:13:15.508Z,98370.81
2023-03-20T07:16:01.236Z,98376.72
2023-03-20T07:18:32.551Z,98358.81
2023-03-20T07:21:05.957Z,98362.94
2023-03-20T07:23:35.923Z,98369.53
2023-03-20T07:26:05.892Z,98369.38
2023-03-20T07:28:34.171Z,98368.28
2023-03-20T07:31:03.548Z,98378.38
2023-03-20T07:33:33.334Z,98373.03
2023-03-20T07:36:03.139Z,98366.13
2023-03-20T07:38:33.094Z,98370.06
2023-03-20T07:41:01.845Z,98370.16
2023-03-20T07:43:30.375Z,98372.75
2023-03-20T07:45:59.784Z,98364.03
2023-03-20T07:48:28.359Z,98364.16
2023-03-20T07:50:57.046Z,98361.31
2023-03-20T07:53:26.702Z,98361.13
2023-03-20T07:55:55.198Z,98367.31
2023-03-20T07:58:23.771Z,98365.25
2023-03-20T08:00:52.365Z,98369.72
2023-03-20T08:03:21.048Z,98365.41
2023-03-20T08:05:50.252Z,98355.84
2023-03-20T08:08:19.444Z,98361.00
2023-03-20T08:10:49.571Z,98358.44
2023-03-20T08:13:17.922Z,98360.16
2023-03-20T08:15:48.139Z,98369.31
2023-03-20T08:18:16.431Z,98364.84
2023-03-20T08:20:44.917Z,98358.00
2023-03-20T08:23:13.552Z,98364.69
2023-03-20T08:25:42.304Z,98349.97
2023-03-20T08:28:12.025Z,98355.78
2023-03-20T08:30:40.330Z,98354.88
2023-03-20T08:33:08.753Z,98354.19
2023-03-20T08:35:37.477Z,98351.72
2023-03-20T08:38:06.446Z,98348.19
2023-03-20T08:40:35.019Z,98358.22
2023-03-20T08:43:03.947Z,98345.31
2023-03-20T08:45:33.733Z,98362.81
2023-03-20T08:48:02.052Z,98352.28
2023-03-20T08:50:30.355Z,98362.63
2023-03-20T08:52:59.028Z,98357.03
2023-03-20T08:55:27.444Z,98358.97
2023-03-20T08:57:57.673Z,98359.66
2023-03-20T09:00:27.899Z,98357.97
2023-03-20T09:02:57.809Z,98349.31
2023-03-20T09:05:26.205Z,98367.38
2023-03-20T09:07:55.989Z,98358.63
2023-03-20T09:10:24.255Z,98358.94
2023-03-20T09:12:52.818Z,98363.97
2023-03-20T09:15:21.714Z,98347.88
2023-03-20T09:17:50.078Z,98372.75
2023-03-20T09:20:19.848Z,98375.44
2023-03-20T09:22:48.030Z,98372.72
2023-03-20T09:25:16.960Z,98373.50
2023-03-20T09:27:45.675Z,98381.09
2023-03-20T09:30:15.122Z,98380.25
2023-03-20T09:32:43.622Z,98378.34
2023-03-20T09:35:11.958Z,98376.53
2023-03-20T09:37:41.635Z,98376.28
2023-03-20T09:40:20.295Z,98378.72
2023-03-20T09:42:54.306Z,98384.25
2023-03-20T09:45:26.944Z,98372.50
2023-03-20T09:48:04.520Z,98389.31
2023-03-20T09:50:37.846Z,98379.25
2023-03-20T09:53:13.042Z,98371.44
2023-03-20T09:55:43.172Z,98376.50
2023-03-20T09:58:16.493Z,98380.50
2023-03-20T10:00:47.777Z,98376.81
2023-03-20T10:03:22.718Z,98377.94
2023-03-20T10:05:57.504Z,98382.44
2023-03-20T10:08:32.058Z,98371.06
2023-03-20T10:11:13.278Z,98374.97
2023-03-20T10:13:56.151Z,98371.72
2023-03-20T10:16:41.170Z,98372.69
2023-03-20T10:19:19.128Z,98371.34
2023-03-20T10:21:50.532Z,98368.69
2023-03-20T10:24:23.991Z,98366.25
2023-03-20T10:26:54.670Z,98377.66
2023-03-20T10:29:31.691Z,98375.81
2023-03-20T10:32:07.560Z,98371.66
2023-03-20T10:34:55.419Z,98367.19
2023-03-20T10:37:39.674Z,98362.47
2023-03-20T10:40:28.223Z,98362.19
2023-03-20T10:43:00.950Z,98365.44
2023-03-20T10:45:37.039Z,98363.97
2023-03-20T10:48:14.702Z,98359.28
2023-03-20T10:50:47.171Z,98348.44
2023-03-20T10:53:28.051Z,98355.03
2023-03-20T10:56:05.595Z,98355.78
2023-03-20T10:58:38.789Z,98354.06
2023-03-20T11:01:08.445Z,98370.09
2023-03-20T11:03:40.049Z,98357.72
2023-03-20T11:06:17.772Z,98355.41
2023-03-20T11:08:53.160Z,98362.53
2023-03-20T11:11:29.007Z,98356.34
2023-03-20T11:14:00.216Z,98364.38
2023-03-20T11:16:34.505Z,98344.81
2023-03-20T11:19:09.090Z,98343.91
2023-03-20T11:21:47.122Z,98343.53
2023-03-20T11:24:27.758Z,98345.97
2023-03-20T11:27:09.647Z,98339.66
2023-03-20T11:29:39.271Z,98341.09
2023-03-20T11:32:19.650Z,98344.66
2023-03-20T11:34:52.615Z,98335.88
2023-03-20T11:37:25.923Z,98336.06
2023-03-20T11:40:02.842Z,98332.69
2023-03-20T11:42:34.395Z,98340.38
2023-03-20T11:45:05.999Z,98338.59
2023-03-20T11:47:36.849Z,98320.81
2023-03-20T11:50:07.826Z,98344.97
2023-03-20T11:52:39.340Z,98332.03
2023-03-20T11:55:25.134Z,98336.28
2023-03-20T11:57:59.739Z,98339.97
2023-03-20T12:00:31.868Z,98337.50
2023-03-20T12:03:00.424Z,98330.84
2023-03-20T12:05:36.119Z,98328.81
2023-03-20T12:08:11.120Z,98335.94
2023-03-20T12:10:43.305Z,98332.25
2023-03-20T12:13:19.209Z,98328.00
2023-03-20T12:15:53.148Z,98326.63
2023-03-20T12:18:30.224Z,98323.75
2023-03-20T12:21:08.786Z,98320.41
2023-03-20T12:23:42.188Z,98310.44
2023-03-20T12:26:14.523Z,98313.25
2023-03-20T12:28:52.007Z,98313.94
2023-03-20T12:31:28.584Z,98303.09
2023-03-20T12:34:04.608Z,98303.56
2023-03-20T12:36:36.370Z,98301.59
2023-03-20T12:39:08.319Z,98299.00
2023-03-20T12:41:48.676Z,98296.25
2023-03-20T12:44:39.467Z,98291.59
2023-03-20T12:47:27.621Z,98289.59
2023-03-20T12:50:05.446Z,98285.38
2023-03-20T12:52:46.199Z,98290.91
2023-03-20T12:55:27.246Z,98284.75
2023-03-20T12:58:13.498Z,98283.53
2023-03-20T13:00:50.430Z,98285.78
2023-03-20T13:03:35.457Z,98287.66
2023-03-20T13:06:12.044Z,98286.50
2023-03-20T13:09:06.942Z,98284.81
2023-03-20T13:11:44.904Z,98285.34
2023-03-20T13:14:22.732Z,98287.25
2023-03-20T13:16:59.558Z,98292.75
2023-03-20T13:19:35.577Z,98279.09
2023-03-20T13:22:12.020Z,98284.75
2023-03-20T13:24:46.038Z,98282.34
2023-03-20T13:27:32.588Z,98287.41
2023-03-20T13:30:08.915Z,98285.91
2023-03-20T13:32:52.723Z,98282.22
2023-03-20T13:35:37.264Z,98286.34
2023-03-20T13:38:13.555Z,98284.53
2023-03-20T13:40:44.913Z,98281.41
2023-03-20T13:43:25.608Z,98286.72
2023-03-20T13:45:58.527Z,98277.75
2023-03-20T13:48:33.547Z,98278.03
2023-03-20T13:51:11.987Z,98280.56
2023-03-20T13:53:51.551Z,98275.25
2023-03-20T13:56:33.849Z,98274.63
2023-03-20T13:59:33.477Z,98261.66
2023-03-20T14:02:13.585Z,98260.50
2023-03-20T14:04:44.797Z,98257.59
2023-03-20T14:07:30.936Z,98248.72
2023-03-20T14:09:59.321Z,98251.34
2023-03-20T14:12:33.560Z,98241.34
2023-03-20T14:15:02.299Z,98247.75
2023-03-20T14:17:32.566Z,98249.34
2023-03-20T14:20:14.248Z,98246.88
2023-03-20T14:22:43.545Z,98239.38
2023-03-20T14:25:21.028Z,98237.84
2023-03-20T14:28:00.728Z,98235.34
2023-03-20T14:30:50.266Z,98234.94
2023-03-20T14:33:33.224Z,98225.03
2023-03-20T14:36:23.809Z,98238.53
2023-03-20T14:39:16.255Z,98233.06
2023-03-20T14:42:06.004Z,98232.16
2023-03-20T14:44:49.728Z,98222.53
2023-03-20T14:47:28.337Z,98230.47
2023-03-20T14:50:03.844Z,98228.69
2023-03-20T14:52:44.641Z,98231.03
2023-03-20T14:55:32.333Z,98233.59
2023-03-20T14:58:05.006Z,98234.84
2023-03-20T15:00:37.787Z,98233.84
2023-03-20T15:03:09.662Z,98231.69
2023-03-20T15:05:40.732Z,98238.34
2023-03-20T15:08:15.218Z,98228.25
2023-03-20T15:10:51.017Z,98235.06
2023-03-20T15:13:20.676Z,98228.88
2023-03-20T15:15:57.909Z,98239.69
2023-03-20T15:18:28.819Z,98224.09
2023-03-20T15:20:58.375Z,98227.09
2023-03-20T15:23:28.127Z,98225.91
2023-03-20T15:25:56.825Z,98217.78
2023-03-20T15:28:26.985Z,98228.78
2023-03-20T15:30:59.467Z,98221.78
2023-03-20T15:33:30.552Z,98226.69
2023-03-20T15:36:00.343Z,98223.53
2023-03-20T15:38:35.611Z,98219.03
2023-03-20T15:41:06.799Z,98226.69
2023-03-20T15:43:38.316Z,98229.25
2023-03-20T15:46:18.099Z,98226.69
2023-03-20T15:48:50.746Z,98233.59
2023-03-20T15:51:20.136Z,98230.44
2023-03-20T15:53:51.106Z,98232.13
2023-03-20T15:56:21.520Z,98232.22
2023-03-20T15:58:54.056Z,98237.31
2023-03-20T16:01:25.173Z,98224.16
2023-03-20T16:03:59.026Z,98228.50
2023-03-20T16:06:29.499Z,98229.63
2023-03-20T16:09:01.154Z,98229.78
2023-03-20T16:11:39.481Z,98235.63
2023-03-20T16:14:09.959Z,98235.56
2023-03-20T16:16:38.678Z,98234.94
2023-03-20T16:19:08.719Z,98239.50
2023-03-20T16:21:41.900Z,98239.56
2023-03-20T16:24:19.328Z,98238.81
2023-03-20T16:26:51.693Z,98232.91
2023-03-20T16:29:22.086Z,98244.25
2023-03-20T16:31:55.894Z,98244.28
2023-03-20T16:34:27.137Z,98235.00
2023-03-20T16:36:58.935Z,98236.81
2023-03-20T16:39:30.883Z,98235.22
2023-03-20T16:42:25.673Z,98245.59
2023-03-20T16:44:57.200Z,98239.66
2023-03-20T16:47:34.509Z,98244.88
2023-03-20T16:50:18.373Z,98238.25
2023-03-20T16:52:51.245Z,98244.25
2023-03-20T16:55:28.374Z,98243.75
2023-03-20T16:58:00.288Z,98246.25
2023-03-20T17:00:34.193Z,98238.63
2023-03-20T17:03:11.250Z,98243.97
2023-03-20T17:05:51.654Z,98252.59
2023-03-20T17:08:34.151Z,98248.91
2023-03-20T17:11:07.234Z,98253.44
2023-03-20T17:13:36.100Z,98246.75
2023-03-20T17:16:04.728Z,98241.09
2023-03-20T17:18:33.722Z,98251.53
2023-03-20T17:21:04.094Z,98252.41
2023-03-20T17:23:34.660Z,98255.97
2023-03-20T17:26:06.955Z,98256.09
2023-03-20T17:28:39.090Z,98260.41
2023-03-20T17:31:10.571Z,98258.81
2023-03-20T17:33:39.854Z,98253.13
2023-03-20T17:36:16.356Z,98261.78
2023-03-20T17:38:47.196Z,98262.59
2023-03-20T17:41:18.426Z,98265.19
2023-03-20T17:43:47.437Z,98260.16
2023-03-20T17:46:19.575Z,98254.91
2023-03-20T17:48:48.903Z,98254.25
2023-03-20T17:51:17.584Z,98251.81
2023-03-20T17:53:46.172Z,98257.84
2023-03-20T17:56:17.830Z,98267.44
2023-03-20T17:58:46.124Z,98276.09
2023-03-20T18:01:16.198Z,98271.06
2023-03-20T18:03:45.232Z,98268.59
2023-03-20T18:06:21.908Z,98276.19
2023-03-20T18:08:50.597Z,98270.22
2023-03-20T18:11:21.187Z,98261.81
2023-03-20T18:13:51.390Z,98265.09
2023-03-20T18:16:23.065Z,98269.41
2023-03-20T18:18:52.921Z,98272.91
2023-03-20T18:21:21.830Z,98270.47
2023-03-20T18:23:50.810Z,98275.56
2023-03-20T18:26:22.869Z,98275.63
2023-03-20T18:28:53.741Z,98271.44
2023-03-20T18:31:23.682Z,98278.41
2023-03-20T18:33:56.420Z,98283.59
2023-03-20T18:36:26.243Z,98279.50
2023-03-20T18:38:55.619Z,98289.81
2023-03-20T18:41:25.812Z,98267.69
2023-03-20T18:43:55.741Z,98277.09
2023-03-20T18:46:26.488Z,98276.28
2023-03-20T18:48:55.550Z,98278.91
2023-03-20T18:51:25.651Z,98274.66
2023-03-20T18:57:45.379Z,98279.22
2023-03-20T19:00:21.661Z,98266.56
2023-03-20T19:02:50.913Z,98273.38
2023-03-20T19:05:20.822Z,98281.06
2023-03-20T19:07:50.650Z,98282.81
2023-03-20T19:10:29.895Z,98283.72
2023-03-20T19:13:02.444Z,98278.59
2023-03-20T19:15:35.745Z,98285.34
2023-03-20T19:18:05.022Z,98283.59
2023-03-20T19:20:36.864Z,98282.75
2023-03-20T19:23:07.330Z,98284.47
2023-03-20T19:25:36.546Z,98278.38
2023-03-20T19:28:07.754Z,98282.63
2023-03-20T19:30:39.704Z,98282.56
2023-03-20T19:33:09.512Z,98277.44
2023-03-20T19:35:58.817Z,98279.97
2023-03-20T19:38:28.627Z,98284.25
2023-03-20T19:41:01.987Z,98278.19
2023-03-20T19:43:32.408Z,98278.25
2023-03-20T19:46:01.632Z,98275.75
2023-03-20T19:48:46.956Z,98278.34
2023-03-20T19:51:23.807Z,98284.41
2023-03-20T19:53:54.570Z,98271.66
2023-03-20T19:56:24.734Z,98278.50
2023-03-20T19:58:55.625Z,98272.72
2023-03-20T20:01:27.305Z,98280.41
2023-03-20T20:03:58.056Z,98275.31
2023-03-20T20:06:31.113Z,98277.97
2023-03-20T20:09:01.589Z,98270.38
2023-03-20T20:11:35.471Z,98278.97
2023-03-20T20:14:10.568Z,98275.66
2023-03-20T20:16:43.327Z,98274.03
2023-03-20T20:19:13.598Z,98280.03
2023-03-20T20:22:19.663Z,98275.78
2023-03-20T20:24:34.986Z,98277.53
2023-03-20T20:27:17.237Z,98275.84
2023-03-20T20:29:50.813Z,98276.75
2023-03-20T20:32:21.862Z,98278.47
2023-03-20T20:40:31.179Z,98273.22
2023-03-20T20:43:02.610Z,98270.59
2023-03-20T20:45:33.724Z,98276.50
2023-03-20T20:48:04.220Z,98285.03
2023-03-20T20:50:39.541Z,98277.28
2023-03-20T20:53:09.176Z,98249.41
2023-03-20T20:55:38.274Z,98285.91
2023-03-20T20:58:09.370Z,98284.19
2023-03-20T21:00:51.247Z,98283.38
2023-03-20T21:03:22.795Z,98285.13
2023-03-20T21:05:51.509Z,98288.53
2023-03-20T21:08:21.302Z,98284.28
2023-03-20T21:10:51.112Z,98279.25
2023-03-20T21:13:20.542Z,98279.25
2023-03-20T21:15:58.978Z,98275.81
2023-03-20T21:18:29.700Z,98286.94
2023-03-20T21:21:05.839Z,98274.25
2023-03-20T21:23:34.378Z,98275.16
2023-03-20T21:26:03.034Z,98280.22
2023-03-20T21:28:32.031Z,98277.63
2023-03-20T21:31:23.224Z,98274.06
2023-03-20T21:33:56.130Z,98282.56
2023-03-20T21:36:24.885Z,98274.81
2023-03-20T21:39:09.778Z,98271.31
2023-03-20T21:41:39.600Z,98273.06
2023-03-20T21:44:16.785Z,98262.91
2023-03-20T22:01:41.967Z,98270.09
2023-03-20T22:04:45.012Z,98258.38
2023-03-20T22:12:54.206Z,98261.22
2023-03-20T22:18:19.463Z,98259.66
2023-03-20T22:24:12.555Z,98262.19
2023-03-20T22:41:39.376Z,98270.97
2023-03-20T22:44:13.690Z,98281.16
2023-03-20T22:46:22.640Z,98283.69
2023-03-20T22:48:52.399Z,98281.06
2023-03-20T22:51:28.639Z,98285.25
2023-03-20T22:54:02.881Z,98287.78
2023-03-20T22:56:31.067Z,98279.19
2023-03-20T22:58:59.361Z,98284.28
2023-03-20T23:01:27.998Z,98276.56
2023-03-20T23:03:56.188Z,98279.91
2023-03-20T23:06:26.457Z,98280.75
2023-03-20T23:08:58.417Z,98284.16
2023-03-20T23:11:29.842Z,98273.09
2023-03-20T23:13:58.469Z,98275.63
2023-03-20T23:16:26.761Z,98273.09
2023-03-20T23:18:55.102Z,98270.50
2023-03-20T23:21:23.545Z,98276.53
2023-03-20T23:23:51.967Z,98272.28
2023-03-20T23:26:22.202Z,98268.88
2023-03-20T23:28:53.491Z,98266.31
2023-03-20T23:31:24.113Z,98254.38
2023-03-20T23:33:55.024Z,98266.16
2023-03-20T23:36:35.295Z,98263.59
2023-03-20T23:39:05.500Z,98267.91
2023-03-20T23:42:04.702Z,98260.22
2023-03-20T23:44:24.076Z,98258.53
2023-03-20T23:46:52.373Z,98260.28
2023-03-20T23:49:20.831Z,98251.06
2023-03-20T23:51:49.054Z,98259.56
2023-03-20T23:54:17.352Z,98257.09
2023-03-20T23:56:45.916Z,98250.22
2023-03-20T23:59:21.552Z,98257.88
